sensor_id;sensor_type;location;lat;lon;timestamp;temperature;humidity
5647;DHT22;2845;48.626;9.362;2024-03-08T00:02:14;3.60;98.50
5647;DHT22;2845;48.626;9.362;2024-03-08T00:04:48;3.60;98.60
5647;DHT22;2845;48.626;9.362;2024-03-08T00:07:23;4.40;98.90
5647;DHT22;2845;48.626;9.362;2024-03-08T00:12:33;3.40;98.70
5647;DHT22;2845;48.626;9.362;2024-03-08T00:15:08;3.20;98.70
5647;DHT22;2845;48.626;9.362;2024-03-08T00:17:44;3.20;98.80
5647;DHT22;2845;48.626;9.362;2024-03-08T00:20:19;6.50;99.60
5647;DHT22;2845;48.626;9.362;2024-03-08T00:22:53;3.10;99.00
5647;DHT22;2845;48.626;9.362;2024-03-08T00:28:06;3.00;99.20
5647;DHT22;2845;48.626;9.362;2024-03-08T00:30:40;2.90;99.30
5647;DHT22;2845;48.626;9.362;2024-03-08T00:35:50;2.80;99.30
5647;DHT22;2845;48.626;9.362;2024-03-08T00:38:24;6.50;99.90
5647;DHT22;2845;48.626;9.362;2024-03-08T00:40:59;2.60;99.50
5647;DHT22;2845;48.626;9.362;2024-03-08T00:43:34;2.40;99.50
5647;DHT22;2845;48.626;9.362;2024-03-08T00:46:09;4.60;99.90
5647;DHT22;2845;48.626;9.362;2024-03-08T00:48:43;2.50;99.70
5647;DHT22;2845;48.626;9.362;2024-03-08T00:51:17;4.50;99.90
5647;DHT22;2845;48.626;9.362;2024-03-08T00:53:51;-1.20;98.80
5647;DHT22;2845;48.626;9.362;2024-03-08T00:59:01;2.40;99.70
5647;DHT22;2845;48.626;9.362;2024-03-08T01:01:36;2.30;99.50
5647;DHT22;2845;48.626;9.362;2024-03-08T01:04:10;2.20;99.80
5647;DHT22;2845;48.626;9.362;2024-03-08T01:06:45;2.20;99.90
5647;DHT22;2845;48.626;9.362;2024-03-08T01:14:31;2.10;99.90
5647;DHT22;2845;48.626;9.362;2024-03-08T01:17:05;1.90;99.90
5647;DHT22;2845;48.626;9.362;2024-03-08T01:19:40;-1.20;99.30
5647;DHT22;2845;48.626;9.362;2024-03-08T01:22:14;2.00;99.90
5647;DHT22;2845;48.626;9.362;2024-03-08T01:24:48;1.90;99.80
5647;DHT22;2845;48.626;9.362;2024-03-08T01:27:24;1.80;99.90
5647;DHT22;2845;48.626;9.362;2024-03-08T01:29:58;3.10;99.90
5647;DHT22;2845;48.626;9.362;2024-03-08T01:32:33;-0.90;99.70
5647;DHT22;2845;48.626;9.362;2024-03-08T01:35:07;1.80;99.90
5647;DHT22;2845;48.626;9.362;2024-03-08T01:37:43;1.80;99.90
5647;DHT22;2845;48.626;9.362;2024-03-08T01:40:17;1.80;99.90
5647;DHT22;2845;48.626;9.362;2024-03-08T01:45:27;1.60;99.90
5647;DHT22;2845;48.626;9.362;2024-03-08T01:48:02;-0.10;99.90
5647;DHT22;2845;48.626;9.362;2024-03-08T01:50:36;1.60;99.90
5647;DHT22;2845;48.626;9.362;2024-03-08T01:53:11;1.50;99.90
5647;DHT22;2845;48.626;9.362;2024-03-08T01:58:27;1.30;99.90
5647;DHT22;2845;48.626;9.362;2024-03-08T02:01:03;1.20;99.90
5647;DHT22;2845;48.626;9.362;2024-03-08T02:03:37;1.20;99.90
5647;DHT22;2845;48.626;9.362;2024-03-08T02:06:12;-2.20;99.90
5647;DHT22;2845;48.626;9.362;2024-03-08T02:08:49;4.10;99.90
5647;DHT22;2845;48.626;9.362;2024-03-08T02:11:23;1.40;99.90
5647;DHT22;2845;48.626;9.362;2024-03-08T02:16:33;1.50;99.90
5647;DHT22;2845;48.626;9.362;2024-03-08T02:19:08;1.50;99.90
5647;DHT22;2845;48.626;9.362;2024-03-08T02:21:44;1.40;99.90
5647;DHT22;2845;48.626;9.362;2024-03-08T02:26:56;1.30;99.90
5647;DHT22;2845;48.626;9.362;2024-03-08T02:29:31;4.30;99.90
5647;DHT22;2845;48.626;9.362;2024-03-08T02:32:07;1.30;99.90
5647;DHT22;2845;48.626;9.362;2024-03-08T02:34:41;1.40;99.90
5647;DHT22;2845;48.626;9.362;2024-03-08T02:39:52;1.40;99.90
5647;DHT22;2845;48.626;9.362;2024-03-08T02:42:26;3.80;99.90
5647;DHT22;2845;48.626;9.362;2024-03-08T02:45:00;1.60;99.90
5647;DHT22;2845;48.626;9.362;2024-03-08T02:47:35;0.10;99.70
5647;DHT22;2845;48.626;9.362;2024-03-08T02:50:09;1.60;99.90
5647;DHT22;2845;48.626;9.362;2024-03-08T02:57:55;1.50;99.90
5647;DHT22;2845;48.626;9.362;2024-03-08T03:00:29;1.30;99.90
5647;DHT22;2845;48.626;9.362;2024-03-08T03:03:05;1.10;99.90
5647;DHT22;2845;48.626;9.362;2024-03-08T03:05:40;0.70;99.90
5647;DHT22;2845;48.626;9.362;2024-03-08T03:08:22;1.10;99.90
5647;DHT22;2845;48.626;9.362;2024-03-08T03:10:56;0.70;99.90
5647;DHT22;2845;48.626;9.362;2024-03-08T03:13:30;1.00;99.90
5647;DHT22;2845;48.626;9.362;2024-03-08T03:16:06;1.10;99.90
5647;DHT22;2845;48.626;9.362;2024-03-08T03:18:40;1.10;99.90
5647;DHT22;2845;48.626;9.362;2024-03-08T03:21:15;1.00;99.90
5647;DHT22;2845;48.626;9.362;2024-03-08T03:26:26;-2.20;99.70
5647;DHT22;2845;48.626;9.362;2024-03-08T03:29:00;0.90;99.90
5647;DHT22;2845;48.626;9.362;2024-03-08T03:31:36;0.10;99.90
5647;DHT22;2845;48.626;9.362;2024-03-08T03:34:10;1.00;99.90
5647;DHT22;2845;48.626;9.362;2024-03-08T03:36:44;1.00;99.90
5647;DHT22;2845;48.626;9.362;2024-03-08T03:41:56;1.10;99.90
5647;DHT22;2845;48.626;9.362;2024-03-08T03:44:30;1.10;99.90
5647;DHT22;2845;48.626;9.362;2024-03-08T03:47:05;1.10;99.90
5647;DHT22;2845;48.626;9.362;2024-03-08T03:49:39;1.10;99.90
5647;DHT22;2845;48.626;9.362;2024-03-08T03:52:13;1.00;99.90
5647;DHT22;2845;48.626;9.362;2024-03-08T03:54:49;1.10;99.90
5647;DHT22;2845;48.626;9.362;2024-03-08T03:57:23;1.10;99.90
5647;DHT22;2845;48.626;9.362;2024-03-08T03:59:58;1.00;99.90
5647;DHT22;2845;48.626;9.362;2024-03-08T04:02:32;0.90;99.90
5647;DHT22;2845;48.626;9.362;2024-03-08T04:05:08;0.60;99.90
5647;DHT22;2845;48.626;9.362;2024-03-08T04:12:53;0.60;99.90
5647;DHT22;2845;48.626;9.362;2024-03-08T04:18:04;0.50;99.90
5647;DHT22;2845;48.626;9.362;2024-03-08T04:20:39;0.50;99.90
5647;DHT22;2845;48.626;9.362;2024-03-08T04:23:13;0.60;99.90
5647;DHT22;2845;48.626;9.362;2024-03-08T04:30:59;0.70;99.90
5647;DHT22;2845;48.626;9.362;2024-03-08T04:33:34;0.70;99.90
5647;DHT22;2845;48.626;9.362;2024-03-08T04:36:08;2.70;99.90
5647;DHT22;2845;48.626;9.362;2024-03-08T04:38:46;0.60;99.90
5647;DHT22;2845;48.626;9.362;2024-03-08T04:43:57;-0.30;99.90
5647;DHT22;2845;48.626;9.362;2024-03-08T04:49:08;0.00;99.90
5647;DHT22;2845;48.626;9.362;2024-03-08T04:51:44;0.00;99.90
5647;DHT22;2845;48.626;9.362;2024-03-08T04:54:18;-0.20;99.90
5647;DHT22;2845;48.626;9.362;2024-03-08T05:02:03;-0.20;99.90
5647;DHT22;2845;48.626;9.362;2024-03-08T05:04:37;-0.30;99.90
5647;DHT22;2845;48.626;9.362;2024-03-08T05:07:12;-0.30;99.90
5647;DHT22;2845;48.626;9.362;2024-03-08T05:09:46;-0.50;99.90
5647;DHT22;2845;48.626;9.362;2024-03-08T05:14:59;-0.30;99.90
5647;DHT22;2845;48.626;9.362;2024-03-08T05:20:09;-0.50;99.90
5647;DHT22;2845;48.626;9.362;2024-03-08T05:22:46;-0.50;99.90
5647;DHT22;2845;48.626;9.362;2024-03-08T05:25:20;0.10;99.90
5647;DHT22;2845;48.626;9.362;2024-03-08T05:27:56;-0.50;99.90
5647;DHT22;2845;48.626;9.362;2024-03-08T05:30:30;-0.50;99.90
5647;DHT22;2845;48.626;9.362;2024-03-08T05:33:05;-0.40;99.90
5647;DHT22;2845;48.626;9.362;2024-03-08T05:35:43;-0.60;99.90
5647;DHT22;2845;48.626;9.362;2024-03-08T05:38:17;-0.60;99.90
5647;DHT22;2845;48.626;9.362;2024-03-08T05:40:53;-0.70;99.90
5647;DHT22;2845;48.626;9.362;2024-03-08T05:43:28;-1.20;99.90
5647;DHT22;2845;48.626;9.362;2024-03-08T05:46:03;1.80;99.90
5647;DHT22;2845;48.626;9.362;2024-03-08T05:48:37;-0.60;99.90
5647;DHT22;2845;48.626;9.362;2024-03-08T05:51:12;-0.70;99.90
5647;DHT22;2845;48.626;9.362;2024-03-08T05:53:46;-0.70;99.90
5647;DHT22;2845;48.626;9.362;2024-03-08T05:56:20;-0.70;99.90
5647;DHT22;2845;48.626;9.362;2024-03-08T05:58:56;-0.70;99.90
5647;DHT22;2845;48.626;9.362;2024-03-08T06:01:31;-0.80;99.90
5647;DHT22;2845;48.626;9.362;2024-03-08T06:04:08;-0.60;99.90
5647;DHT22;2845;48.626;9.362;2024-03-08T06:06:44;-0.60;99.90
5647;DHT22;2845;48.626;9.362;2024-03-08T06:09:23;-0.60;99.90
5647;DHT22;2845;48.626;9.362;2024-03-08T06:11:57;-0.40;99.90
5647;DHT22;2845;48.626;9.362;2024-03-08T06:14:33;-0.40;99.90
5647;DHT22;2845;48.626;9.362;2024-03-08T06:17:07;-3.80;99.90
5647;DHT22;2845;48.626;9.362;2024-03-08T06:19:41;-0.30;99.90
5647;DHT22;2845;48.626;9.362;2024-03-08T06:22:15;-0.40;99.90
5647;DHT22;2845;48.626;9.362;2024-03-08T06:24:50;-0.40;99.90
5647;DHT22;2845;48.626;9.362;2024-03-08T06:27:24;-0.40;99.90
5647;DHT22;2845;48.626;9.362;2024-03-08T06:29:59;-0.40;99.90
5647;DHT22;2845;48.626;9.362;2024-03-08T06:32:33;-0.40;99.90
5647;DHT22;2845;48.626;9.362;2024-03-08T06:35:09;-0.40;99.90
5647;DHT22;2845;48.626;9.362;2024-03-08T06:37:43;-0.40;99.90
5647;DHT22;2845;48.626;9.362;2024-03-08T06:40:17;-0.30;99.90
5647;DHT22;2845;48.626;9.362;2024-03-08T06:42:52;-0.30;99.90
5647;DHT22;2845;48.626;9.362;2024-03-08T06:45:27;-0.10;99.90
5647;DHT22;2845;48.626;9.362;2024-03-08T06:48:01;0.00;99.90
5647;DHT22;2845;48.626;9.362;2024-03-08T06:50:36;0.10;99.90
5647;DHT22;2845;48.626;9.362;2024-03-08T06:53:10;0.30;99.90
5647;DHT22;2845;48.626;9.362;2024-03-08T06:55:44;0.40;99.90
5647;DHT22;2845;48.626;9.362;2024-03-08T06:58:19;0.50;99.90
5647;DHT22;2845;48.626;9.362;2024-03-08T07:00:54;0.50;99.90
5647;DHT22;2845;48.626;9.362;2024-03-08T07:03:31;0.60;99.90
5647;DHT22;2845;48.626;9.362;2024-03-08T07:06:05;0.60;99.90
5647;DHT22;2845;48.626;9.362;2024-03-08T07:08:40;0.60;99.90
5647;DHT22;2845;48.626;9.362;2024-03-08T07:11:14;0.70;99.90
5647;DHT22;2845;48.626;9.362;2024-03-08T07:13:51;0.90;99.90
5647;DHT22;2845;48.626;9.362;2024-03-08T07:16:28;1.20;99.90
5647;DHT22;2845;48.626;9.362;2024-03-08T07:19:02;1.10;99.90
5647;DHT22;2845;48.626;9.362;2024-03-08T07:21:36;1.50;99.60
5647;DHT22;2845;48.626;9.362;2024-03-08T07:24:10;1.60;99.40
5647;DHT22;2845;48.626;9.362;2024-03-08T07:27:00;1.80;99.50
5647;DHT22;2845;48.626;9.362;2024-03-08T07:29:35;1.90;99.30
5647;DHT22;2845;48.626;9.362;2024-03-08T07:32:10;2.00;99.20
5647;DHT22;2845;48.626;9.362;2024-03-08T07:34:53;2.20;99.10
5647;DHT22;2845;48.626;9.362;2024-03-08T07:37:28;2.30;98.90
5647;DHT22;2845;48.626;9.362;2024-03-08T07:40:02;2.40;98.60
5647;DHT22;2845;48.626;9.362;2024-03-08T07:42:36;2.60;98.40
5647;DHT22;2845;48.626;9.362;2024-03-08T07:45:11;2.70;98.20
5647;DHT22;2845;48.626;9.362;2024-03-08T07:47:47;2.80;98.00
5647;DHT22;2845;48.626;9.362;2024-03-08T07:50:21;5.30;98.50
5647;DHT22;2845;48.626;9.362;2024-03-08T07:52:55;3.10;98.00
5647;DHT22;2845;48.626;9.362;2024-03-08T07:55:29;3.20;97.90
5647;DHT22;2845;48.626;9.362;2024-03-08T07:58:04;3.30;98.00
5647;DHT22;2845;48.626;9.362;2024-03-08T08:00:39;3.40;97.70
5647;DHT22;2845;48.626;9.362;2024-03-08T08:03:17;3.50;97.80
5647;DHT22;2845;48.626;9.362;2024-03-08T08:05:53;3.60;97.80
5647;DHT22;2845;48.626;9.362;2024-03-08T08:08:28;3.70;97.70
5647;DHT22;2845;48.626;9.362;2024-03-08T08:11:02;3.90;97.60
5647;DHT22;2845;48.626;9.362;2024-03-08T08:13:37;4.00;97.50
5647;DHT22;2845;48.626;9.362;2024-03-08T08:16:12;4.10;97.50
5647;DHT22;2845;48.626;9.362;2024-03-08T08:18:48;4.20;97.40
5647;DHT22;2845;48.626;9.362;2024-03-08T08:21:23;4.30;97.30
5647;DHT22;2845;48.626;9.362;2024-03-08T08:23:58;4.40;97.30
5647;DHT22;2845;48.626;9.362;2024-03-08T08:26:33;4.50;97.20
5647;DHT22;2845;48.626;9.362;2024-03-08T08:29:12;4.70;97.10
5647;DHT22;2845;48.626;9.362;2024-03-08T08:31:46;4.80;97.10
5647;DHT22;2845;48.626;9.362;2024-03-08T08:34:24;4.90;96.50
5647;DHT22;2845;48.626;9.362;2024-03-08T08:39:33;5.10;96.20
5647;DHT22;2845;48.626;9.362;2024-03-08T08:42:07;5.20;96.30
5647;DHT22;2845;48.626;9.362;2024-03-08T08:44:41;5.30;96.20
5647;DHT22;2845;48.626;9.362;2024-03-08T08:47:16;5.40;96.20
5647;DHT22;2845;48.626;9.362;2024-03-08T08:49:52;5.40;95.90
5647;DHT22;2845;48.626;9.362;2024-03-08T08:52:27;5.50;95.70
5647;DHT22;2845;48.626;9.362;2024-03-08T08:55:02;5.60;95.60
5647;DHT22;2845;48.626;9.362;2024-03-08T08:57:37;5.60;95.00
5647;DHT22;2845;48.626;9.362;2024-03-08T09:00:12;5.60;95.20
5647;DHT22;2845;48.626;9.362;2024-03-08T09:02:48;5.80;95.30
5647;DHT22;2845;48.626;9.362;2024-03-08T09:05:25;5.90;94.90
5647;DHT22;2845;48.626;9.362;2024-03-08T09:07:59;5.90;94.70
5647;DHT22;2845;48.626;9.362;2024-03-08T09:10:34;2.80;94.00
5647;DHT22;2845;48.626;9.362;2024-03-08T09:13:08;5.80;94.60
5647;DHT22;2845;48.626;9.362;2024-03-08T09:15:49;5.90;94.80
5647;DHT22;2845;48.626;9.362;2024-03-08T09:18:26;6.00;94.40
5647;DHT22;2845;48.626;9.362;2024-03-08T09:23:37;6.10;94.40
5647;DHT22;2845;48.626;9.362;2024-03-08T09:26:13;6.10;94.40
5647;DHT22;2845;48.626;9.362;2024-03-08T09:29:00;6.20;94.30
5647;DHT22;2845;48.626;9.362;2024-03-08T09:31:34;6.30;94.40
5647;DHT22;2845;48.626;9.362;2024-03-08T09:34:08;6.40;94.20
5647;DHT22;2845;48.626;9.362;2024-03-08T09:36:53;6.40;94.20
5647;DHT22;2845;48.626;9.362;2024-03-08T09:39:27;6.60;94.20
5647;DHT22;2845;48.626;9.362;2024-03-08T09:42:04;6.60;93.90
5647;DHT22;2845;48.626;9.362;2024-03-08T09:44:39;6.60;93.80
5647;DHT22;2845;48.626;9.362;2024-03-08T09:47:14;6.60;93.70
5647;DHT22;2845;48.626;9.362;2024-03-08T09:49:49;6.60;93.60
5647;DHT22;2845;48.626;9.362;2024-03-08T09:52:24;6.60;93.60
5647;DHT22;2845;48.626;9.362;2024-03-08T09:55:00;6.70;93.60
5647;DHT22;2845;48.626;9.362;2024-03-08T09:57:36;6.80;93.60
5647;DHT22;2845;48.626;9.362;2024-03-08T10:00:13;6.90;93.60
5647;DHT22;2845;48.626;9.362;2024-03-08T10:03:01;7.00;93.50
5647;DHT22;2845;48.626;9.362;2024-03-08T10:05:35;7.00;93.40
5647;DHT22;2845;48.626;9.362;2024-03-08T10:08:11;7.20;93.50
5647;DHT22;2845;48.626;9.362;2024-03-08T10:10:46;9.50;93.80
5647;DHT22;2845;48.626;9.362;2024-03-08T10:13:21;7.60;93.00
5647;DHT22;2845;48.626;9.362;2024-03-08T10:15:55;7.70;92.70
5647;DHT22;2845;48.626;9.362;2024-03-08T10:18:29;7.80;92.60
5647;DHT22;2845;48.626;9.362;2024-03-08T10:21:04;7.90;92.40
5647;DHT22;2845;48.626;9.362;2024-03-08T10:23:42;8.00;92.30
5647;DHT22;2845;48.626;9.362;2024-03-08T10:26:17;8.00;92.30
5647;DHT22;2845;48.626;9.362;2024-03-08T10:28:53;8.00;92.40
5647;DHT22;2845;48.626;9.362;2024-03-08T10:31:28;8.40;92.50
5647;DHT22;2845;48.626;9.362;2024-03-08T10:34:02;9.70;92.50
5647;DHT22;2845;48.626;9.362;2024-03-08T10:36:39;8.60;92.00
5647;DHT22;2845;48.626;9.362;2024-03-08T10:39:21;8.70;91.80
5647;DHT22;2845;48.626;9.362;2024-03-08T10:41:58;8.50;91.70
5647;DHT22;2845;48.626;9.362;2024-03-08T10:44:42;8.40;91.80
5647;DHT22;2845;48.626;9.362;2024-03-08T10:47:26;8.30;92.10
5647;DHT22;2845;48.626;9.362;2024-03-08T10:50:10;8.20;92.20
5647;DHT22;2845;48.626;9.362;2024-03-08T10:52:50;8.30;92.00
5647;DHT22;2845;48.626;9.362;2024-03-08T10:55:28;8.30;92.10
5647;DHT22;2845;48.626;9.362;2024-03-08T10:58:02;10.50;92.50
5647;DHT22;2845;48.626;9.362;2024-03-08T11:00:37;8.40;91.90
5647;DHT22;2845;48.626;9.362;2024-03-08T11:03:44;8.50;91.80
5647;DHT22;2845;48.626;9.362;2024-03-08T11:06:29;8.40;91.90
5647;DHT22;2845;48.626;9.362;2024-03-08T11:09:08;8.40;91.80
5647;DHT22;2845;48.626;9.362;2024-03-08T11:11:52;8.50;91.80
5647;DHT22;2845;48.626;9.362;2024-03-08T11:14:44;8.30;91.80
5647;DHT22;2845;48.626;9.362;2024-03-08T11:17:25;8.10;92.20
5647;DHT22;2845;48.626;9.362;2024-03-08T11:20:00;8.00;92.10
5647;DHT22;2845;48.626;9.362;2024-03-08T11:25:33;7.90;92.50
5647;DHT22;2845;48.626;9.362;2024-03-08T11:28:15;7.80;92.30
5647;DHT22;2845;48.626;9.362;2024-03-08T11:31:22;7.80;92.60
5647;DHT22;2845;48.626;9.362;2024-03-08T11:33:58;7.70;92.70
5647;DHT22;2845;48.626;9.362;2024-03-08T11:36:34;7.80;92.90
5647;DHT22;2845;48.626;9.362;2024-03-08T11:39:10;7.70;92.80
5647;DHT22;2845;48.626;9.362;2024-03-08T11:41:48;7.80;92.80
5647;DHT22;2845;48.626;9.362;2024-03-08T11:44:26;7.90;92.80
5647;DHT22;2845;48.626;9.362;2024-03-08T11:47:01;8.10;92.50
5647;DHT22;2845;48.626;9.362;2024-03-08T11:49:36;8.20;92.40
5647;DHT22;2845;48.626;9.362;2024-03-08T11:52:11;8.20;92.20
5647;DHT22;2845;48.626;9.362;2024-03-08T11:54:51;8.10;92.30
5647;DHT22;2845;48.626;9.362;2024-03-08T11:57:27;8.20;92.10
5647;DHT22;2845;48.626;9.362;2024-03-08T12:00:04;8.10;92.30
5647;DHT22;2845;48.626;9.362;2024-03-08T12:02:40;8.20;92.20
5647;DHT22;2845;48.626;9.362;2024-03-08T12:05:15;8.30;92.20
5647;DHT22;2845;48.626;9.362;2024-03-08T12:07:56;8.40;92.40
5647;DHT22;2845;48.626;9.362;2024-03-08T12:10:31;11.50;93.10
5647;DHT22;2845;48.626;9.362;2024-03-08T12:13:07;8.20;92.40
5647;DHT22;2845;48.626;9.362;2024-03-08T12:15:47;8.30;92.50
5647;DHT22;2845;48.626;9.362;2024-03-08T12:18:21;8.20;92.20
5647;DHT22;2845;48.626;9.362;2024-03-08T12:21:04;8.20;92.30
5647;DHT22;2845;48.626;9.362;2024-03-08T12:23:40;8.10;92.30
5647;DHT22;2845;48.626;9.362;2024-03-08T12:26:15;8.10;92.30
5647;DHT22;2845;48.626;9.362;2024-03-08T12:28:50;8.10;92.50
5647;DHT22;2845;48.626;9.362;2024-03-08T12:34:02;8.10;92.50
5647;DHT22;2845;48.626;9.362;2024-03-08T12:36:36;8.10;92.40
5647;DHT22;2845;48.626;9.362;2024-03-08T12:39:11;8.20;92.20
5647;DHT22;2845;48.626;9.362;2024-03-08T12:41:46;11.30;93.20
5647;DHT22;2845;48.626;9.362;2024-03-08T12:44:20;8.20;92.30
5647;DHT22;2845;48.626;9.362;2024-03-08T12:46:56;8.30;92.50
5647;DHT22;2845;48.626;9.362;2024-03-08T12:49:32;7.30;91.70
5647;DHT22;2845;48.626;9.362;2024-03-08T12:52:10;8.30;92.40
5647;DHT22;2845;48.626;9.362;2024-03-08T12:54:44;8.30;92.30
5647;DHT22;2845;48.626;9.362;2024-03-08T12:57:20;8.40;92.50
5647;DHT22;2845;48.626;9.362;2024-03-08T12:59:54;8.40;92.20
5647;DHT22;2845;48.626;9.362;2024-03-08T13:02:30;8.40;92.50
5647;DHT22;2845;48.626;9.362;2024-03-08T13:05:05;8.90;92.70
5647;DHT22;2845;48.626;9.362;2024-03-08T13:07:42;8.40;92.20
5647;DHT22;2845;48.626;9.362;2024-03-08T13:10:19;8.50;92.50
5647;DHT22;2845;48.626;9.362;2024-03-08T13:12:55;8.50;92.50
5647;DHT22;2845;48.626;9.362;2024-03-08T13:15:29;8.50;92.30
5647;DHT22;2845;48.626;9.362;2024-03-08T13:18:05;10.20;92.90
5647;DHT22;2845;48.626;9.362;2024-03-08T13:20:41;8.60;92.60
5647;DHT22;2845;48.626;9.362;2024-03-08T13:23:21;8.60;92.30
5647;DHT22;2845;48.626;9.362;2024-03-08T13:25:55;8.60;92.50
5647;DHT22;2845;48.626;9.362;2024-03-08T13:28:30;10.50;92.80
5647;DHT22;2845;48.626;9.362;2024-03-08T13:31:04;8.60;92.20
5647;DHT22;2845;48.626;9.362;2024-03-08T13:33:41;8.60;92.10
5647;DHT22;2845;48.626;9.362;2024-03-08T13:36:19;8.60;92.20
5647;DHT22;2845;48.626;9.362;2024-03-08T13:38:53;8.70;92.30
5647;DHT22;2845;48.626;9.362;2024-03-08T13:41:27;8.70;92.20
5647;DHT22;2845;48.626;9.362;2024-03-08T13:44:05;8.70;92.40
5647;DHT22;2845;48.626;9.362;2024-03-08T13:46:39;8.70;92.10
5647;DHT22;2845;48.626;9.362;2024-03-08T13:49:16;8.80;92.10
5647;DHT22;2845;48.626;9.362;2024-03-08T13:51:50;9.50;92.30
5647;DHT22;2845;48.626;9.362;2024-03-08T13:54:24;8.80;92.10
5647;DHT22;2845;48.626;9.362;2024-03-08T13:56:59;8.90;92.00
5647;DHT22;2845;48.626;9.362;2024-03-08T13:59:36;9.00;92.00
5647;DHT22;2845;48.626;9.362;2024-03-08T14:02:11;9.10;91.90
5647;DHT22;2845;48.626;9.362;2024-03-08T14:04:48;10.30;92.20
5647;DHT22;2845;48.626;9.362;2024-03-08T14:07:22;9.10;91.60
5647;DHT22;2845;48.626;9.362;2024-03-08T14:09:56;9.10;91.80
5647;DHT22;2845;48.626;9.362;2024-03-08T14:12:31;9.10;91.70
5647;DHT22;2845;48.626;9.362;2024-03-08T14:15:06;9.10;91.80
5647;DHT22;2845;48.626;9.362;2024-03-08T14:17:41;9.20;91.90
5647;DHT22;2845;48.626;9.362;2024-03-08T14:20:17;9.30;91.60
5647;DHT22;2845;48.626;9.362;2024-03-08T14:22:51;9.40;91.80
5647;DHT22;2845;48.626;9.362;2024-03-08T14:25:26;9.40;91.70
5647;DHT22;2845;48.626;9.362;2024-03-08T14:28:03;9.40;91.70
5647;DHT22;2845;48.626;9.362;2024-03-08T14:30:40;9.50;91.60
5647;DHT22;2845;48.626;9.362;2024-03-08T14:33:15;9.50;91.50
5647;DHT22;2845;48.626;9.362;2024-03-08T14:35:51;9.60;91.40
5647;DHT22;2845;48.626;9.362;2024-03-08T14:38:25;9.70;91.40
5647;DHT22;2845;48.626;9.362;2024-03-08T14:41:03;9.80;91.40
5647;DHT22;2845;48.626;9.362;2024-03-08T14:43:41;9.90;91.20
5647;DHT22;2845;48.626;9.362;2024-03-08T14:46:17;9.90;91.10
5647;DHT22;2845;48.626;9.362;2024-03-08T14:48:53;10.10;91.20
5647;DHT22;2845;48.626;9.362;2024-03-08T14:51:28;9.80;90.80
5647;DHT22;2845;48.626;9.362;2024-03-08T14:54:04;9.90;91.20
5647;DHT22;2845;48.626;9.362;2024-03-08T14:56:39;9.90;91.10
5647;DHT22;2845;48.626;9.362;2024-03-08T14:59:14;9.90;91.30
5647;DHT22;2845;48.626;9.362;2024-03-08T15:01:48;9.90;91.00
5647;DHT22;2845;48.626;9.362;2024-03-08T15:04:22;9.80;91.30
5647;DHT22;2845;48.626;9.362;2024-03-08T15:06:58;10.00;91.30
5647;DHT22;2845;48.626;9.362;2024-03-08T15:09:32;10.00;91.20
5647;DHT22;2845;48.626;9.362;2024-03-08T15:12:12;12.10;91.70
5647;DHT22;2845;48.626;9.362;2024-03-08T15:14:48;10.10;91.20
5647;DHT22;2845;48.626;9.362;2024-03-08T15:17:23;10.10;91.20
5647;DHT22;2845;48.626;9.362;2024-03-08T15:19:58;10.00;91.40
5647;DHT22;2845;48.626;9.362;2024-03-08T15:22:33;10.00;91.30
5647;DHT22;2845;48.626;9.362;2024-03-08T15:25:08;10.00;91.60
5647;DHT22;2845;48.626;9.362;2024-03-08T15:27:44;10.00;91.60
5647;DHT22;2845;48.626;9.362;2024-03-08T15:30:18;9.90;91.40
5647;DHT22;2845;48.626;9.362;2024-03-08T15:32:55;9.80;91.50
5647;DHT22;2845;48.626;9.362;2024-03-08T15:35:30;9.80;91.60
5647;DHT22;2845;48.626;9.362;2024-03-08T15:38:06;9.70;91.70
5647;DHT22;2845;48.626;9.362;2024-03-08T15:40:41;9.70;91.80
5647;DHT22;2845;48.626;9.362;2024-03-08T15:43:15;9.60;91.80
5647;DHT22;2845;48.626;9.362;2024-03-08T15:45:49;9.50;91.90
5647;DHT22;2845;48.626;9.362;2024-03-08T15:48:23;9.50;92.10
5647;DHT22;2845;48.626;9.362;2024-03-08T15:50:57;9.40;92.20
5647;DHT22;2845;48.626;9.362;2024-03-08T15:53:36;9.40;92.00
5647;DHT22;2845;48.626;9.362;2024-03-08T15:56:11;11.60;92.60
5647;DHT22;2845;48.626;9.362;2024-03-08T15:58:46;9.30;92.10
5647;DHT22;2845;48.626;9.362;2024-03-08T16:01:21;9.30;92.10
5647;DHT22;2845;48.626;9.362;2024-03-08T16:03:57;9.30;91.90
5647;DHT22;2845;48.626;9.362;2024-03-08T16:06:31;9.30;92.00
5647;DHT22;2845;48.626;9.362;2024-03-08T16:09:09;9.30;92.10
5647;DHT22;2845;48.626;9.362;2024-03-08T16:11:45;9.20;92.10
5647;DHT22;2845;48.626;9.362;2024-03-08T16:14:21;9.20;92.10
5647;DHT22;2845;48.626;9.362;2024-03-08T16:16:55;9.20;92.20
5647;DHT22;2845;48.626;9.362;2024-03-08T16:19:29;9.10;92.30
5647;DHT22;2845;48.626;9.362;2024-03-08T16:22:04;9.10;92.40
5647;DHT22;2845;48.626;9.362;2024-03-08T16:24:43;9.00;92.40
5647;DHT22;2845;48.626;9.362;2024-03-08T16:27:17;9.00;92.50
5647;DHT22;2845;48.626;9.362;2024-03-08T16:29:51;8.90;92.50
5647;DHT22;2845;48.626;9.362;2024-03-08T16:32:25;8.90;92.30
5647;DHT22;2845;48.626;9.362;2024-03-08T16:34:59;8.90;92.40
5647;DHT22;2845;48.626;9.362;2024-03-08T16:37:34;5.70;91.90
5647;DHT22;2845;48.626;9.362;2024-03-08T16:40:10;8.80;92.60
5647;DHT22;2845;48.626;9.362;2024-03-08T16:42:48;8.70;92.50
5647;DHT22;2845;48.626;9.362;2024-03-08T16:45:24;8.60;92.80
5647;DHT22;2845;48.626;9.362;2024-03-08T16:48:00;8.60;92.90
5647;DHT22;2845;48.626;9.362;2024-03-08T16:50:36;8.50;92.90
5647;DHT22;2845;48.626;9.362;2024-03-08T16:53:10;8.40;93.00
5647;DHT22;2845;48.626;9.362;2024-03-08T16:55:46;8.40;93.20
5647;DHT22;2845;48.626;9.362;2024-03-08T16:58:23;8.30;93.30
5647;DHT22;2845;48.626;9.362;2024-03-08T17:00:57;8.20;93.20
5647;DHT22;2845;48.626;9.362;2024-03-08T17:03:31;8.10;93.30
5647;DHT22;2845;48.626;9.362;2024-03-08T17:06:15;8.00;93.40
5647;DHT22;2845;48.626;9.362;2024-03-08T17:08:51;7.90;93.50
5647;DHT22;2845;48.626;9.362;2024-03-08T17:11:29;7.80;93.80
5647;DHT22;2845;48.626;9.362;2024-03-08T17:14:05;7.70;93.70
5647;DHT22;2845;48.626;9.362;2024-03-08T17:16:40;7.60;93.80
5647;DHT22;2845;48.626;9.362;2024-03-08T17:19:14;8.50;94.20
5647;DHT22;2845;48.626;9.362;2024-03-08T17:21:50;7.50;93.90
5647;DHT22;2845;48.626;9.362;2024-03-08T17:24:24;7.40;94.00
5647;DHT22;2845;48.626;9.362;2024-03-08T17:27:00;7.40;94.00
5647;DHT22;2845;48.626;9.362;2024-03-08T17:29:34;7.30;94.30
5647;DHT22;2845;48.626;9.362;2024-03-08T17:32:10;7.10;94.20
5647;DHT22;2845;48.626;9.362;2024-03-08T17:34:44;7.00;94.30
5647;DHT22;2845;48.626;9.362;2024-03-08T17:37:18;6.90;94.50
5647;DHT22;2845;48.626;9.362;2024-03-08T17:39:52;6.80;94.80
5647;DHT22;2845;48.626;9.362;2024-03-08T17:42:29;6.70;94.80
5647;DHT22;2845;48.626;9.362;2024-03-08T17:45:05;6.60;94.90
5647;DHT22;2845;48.626;9.362;2024-03-08T17:47:39;6.50;95.00
5647;DHT22;2845;48.626;9.362;2024-03-08T17:50:14;6.50;95.00
5647;DHT22;2845;48.626;9.362;2024-03-08T17:52:51;6.40;95.10
5647;DHT22;2845;48.626;9.362;2024-03-08T17:55:28;6.30;95.10
5647;DHT22;2845;48.626;9.362;2024-03-08T17:58:04;6.20;95.20
5647;DHT22;2845;48.626;9.362;2024-03-08T18:00:39;6.20;95.20
5647;DHT22;2845;48.626;9.362;2024-03-08T18:03:13;6.10;95.40
5647;DHT22;2845;48.626;9.362;2024-03-08T18:05:49;6.00;95.40
5647;DHT22;2845;48.626;9.362;2024-03-08T18:08:23;5.90;95.50
5647;DHT22;2845;48.626;9.362;2024-03-08T18:10:57;5.80;95.50
5647;DHT22;2845;48.626;9.362;2024-03-08T18:13:34;5.70;95.70
5647;DHT22;2845;48.626;9.362;2024-03-08T18:16:08;5.70;95.80
5647;DHT22;2845;48.626;9.362;2024-03-08T18:18:44;5.70;95.90
5647;DHT22;2845;48.626;9.362;2024-03-08T18:21:20;5.60;95.80
5647;DHT22;2845;48.626;9.362;2024-03-08T18:23:55;5.60;95.70
5647;DHT22;2845;48.626;9.362;2024-03-08T18:26:30;5.60;95.80
5647;DHT22;2845;48.626;9.362;2024-03-08T18:29:08;5.60;95.80